createdAt,value
2022-09-13T00:01:28.939Z,0.90
2022-09-13T00:03:55.760Z,0.70
2022-09-13T00:06:22.739Z,0.98
2022-09-13T00:08:49.845Z,0.88
2022-09-13T00:11:24.619Z,1.00
2022-09-13T00:13:52.186Z,0.82
2022-09-13T00:16:19.841Z,1.00
2022-09-13T00:18:46.793Z,0.98
2022-09-13T00:21:15.207Z,1.02
2022-09-13T00:23:44.624Z,0.85
2022-09-13T00:26:12.969Z,0.90
2022-09-13T00:28:39.691Z,1.08
2022-09-13T00:31:07.667Z,0.73
2022-09-13T00:33:34.492Z,0.90
2022-09-13T00:36:08.596Z,0.80
2022-09-13T00:38:36.478Z,0.80
2022-09-13T00:41:07.192Z,0.80
2022-09-13T00:43:55.098Z,0.80
2022-09-13T00:46:24.240Z,0.90
2022-09-13T00:48:51.910Z,0.80
2022-09-13T00:51:18.684Z,0.80
2022-09-13T00:53:48.380Z,1.02
2022-09-13T00:56:21.511Z,0.90
2022-09-13T00:58:53.920Z,0.80
2022-09-13T01:01:22.525Z,0.70
2022-09-13T01:03:49.426Z,0.98
2022-09-13T01:06:18.924Z,1.13
2022-09-13T01:08:47.647Z,0.75
2022-09-13T01:11:30.508Z,1.00
2022-09-13T01:13:57.232Z,0.82
2022-09-13T01:16:24.148Z,0.80
2022-09-13T01:18:51.124Z,0.85
2022-09-13T01:21:38.381Z,0.80
2022-09-13T01:24:29.714Z,0.80
2022-09-13T01:27:35.168Z,0.90
2022-09-13T01:30:07.850Z,0.80
2022-09-13T01:32:41.492Z,0.68
2022-09-13T01:35:35.894Z,0.63
2022-09-13T01:38:33.939Z,0.85
2022-09-13T01:41:12.722Z,0.90
2022-09-13T01:43:54.225Z,0.85
2022-09-13T01:46:35.951Z,0.73
2022-09-13T01:49:24.573Z,0.88
2022-09-13T01:51:51.270Z,0.90
2022-09-13T01:54:39.704Z,0.80
2022-09-13T01:57:09.554Z,0.80
2022-09-13T02:00:04.960Z,0.75
2022-09-13T02:02:36.916Z,1.00
2022-09-13T02:05:08.704Z,0.73
2022-09-13T02:07:42.918Z,0.80
2022-09-13T02:10:21.964Z,0.88
2022-09-13T02:12:48.818Z,0.73
2022-09-13T02:15:17.605Z,0.70
2022-09-13T02:17:58.457Z,0.80
2022-09-13T02:20:28.740Z,0.70
2022-09-13T02:22:58.682Z,0.80
2022-09-13T02:25:25.908Z,0.70
2022-09-13T02:27:54.510Z,0.80
2022-09-13T02:30:22.345Z,0.77
2022-09-13T02:33:06.742Z,0.75
2022-09-13T02:35:35.874Z,0.80
2022-09-13T02:38:22.981Z,0.75
2022-09-13T02:40:55.953Z,0.70
2022-09-13T02:43:31.589Z,0.80
2022-09-13T02:46:04.252Z,0.80
2022-09-13T02:48:40.229Z,0.90
2022-09-13T02:51:17.101Z,0.70
2022-09-13T02:54:08.877Z,0.80
2022-09-13T02:56:44.427Z,0.80
2022-09-13T02:59:18.737Z,0.90
2022-09-13T03:01:54.860Z,0.80
2022-09-13T03:04:21.668Z,0.77
2022-09-13T03:06:49.731Z,0.80
2022-09-13T03:09:16.464Z,0.77
2022-09-13T03:12:21.241Z,1.00
2022-09-13T03:14:59.469Z,0.70
2022-09-13T03:17:38.376Z,0.77
2022-09-13T03:20:07.471Z,0.80
2022-09-13T03:22:49.775Z,0.85
2022-09-13T03:25:36.778Z,0.90
2022-09-13T03:28:14.415Z,0.80
2022-09-13T03:30:44.842Z,0.70
2022-09-13T03:33:23.833Z,1.00
2022-09-13T03:36:30.768Z,0.80
2022-09-13T03:39:14.960Z,0.80
2022-09-13T03:41:44.860Z,0.70
2022-09-13T03:44:14.066Z,0.65
2022-09-13T03:46:45.311Z,0.70
2022-09-13T03:49:16.754Z,0.90
2022-09-13T03:51:44.648Z,0.70
2022-09-13T03:54:17.168Z,0.88
2022-09-13T03:56:43.962Z,0.60
2022-09-13T03:59:10.669Z,0.57
2022-09-13T04:01:37.423Z,0.77
2022-09-13T04:04:04.167Z,0.85
2022-09-13T04:06:30.864Z,0.82
2022-09-13T04:08:59.723Z,0.80
2022-09-13T04:11:26.822Z,0.60
2022-09-13T04:13:53.891Z,0.70
2022-09-13T04:16:20.713Z,0.80
2022-09-13T04:18:47.493Z,0.80
2022-09-13T04:21:14.314Z,0.70
2022-09-13T04:23:41.058Z,0.68
2022-09-13T04:26:07.774Z,0.70
2022-09-13T04:28:34.813Z,0.88
2022-09-13T04:31:01.611Z,0.85
2022-09-13T04:33:28.388Z,0.85
2022-09-13T04:35:58.601Z,0.90
2022-09-13T04:38:25.450Z,0.70
2022-09-13T04:40:54.283Z,0.80
2022-09-13T04:43:21.248Z,0.80
2022-09-13T04:45:48.187Z,1.00
2022-09-13T04:48:15.683Z,0.75
2022-09-13T04:50:42.566Z,0.80
2022-09-13T04:53:09.274Z,0.80
2022-09-13T04:55:37.472Z,0.80
2022-09-13T04:58:04.959Z,0.82
2022-09-13T05:00:32.876Z,0.80
2022-09-13T05:02:59.689Z,0.95
2022-09-13T05:05:28.742Z,0.98
2022-09-13T05:07:55.553Z,1.00
2022-09-13T05:10:22.325Z,0.80
2022-09-13T05:12:49.272Z,0.75
2022-09-13T05:15:16.375Z,0.60
2022-09-13T05:17:43.412Z,0.80
2022-09-13T05:20:11.041Z,0.88
2022-09-13T05:22:38.324Z,0.90
2022-09-13T05:25:06.101Z,0.90
2022-09-13T05:27:33.414Z,1.08
2022-09-13T05:30:00.481Z,0.90
2022-09-13T05:32:27.873Z,0.82
2022-09-13T05:34:54.835Z,1.40
2022-09-13T05:37:21.774Z,0.95
2022-09-13T05:40:10.228Z,1.15
2022-09-13T05:42:35.474Z,0.95
2022-09-13T05:45:02.751Z,1.33
2022-09-13T05:47:29.895Z,1.00
2022-09-13T05:50:12.048Z,1.13
2022-09-13T05:52:44.224Z,1.00
2022-09-13T05:55:11.763Z,0.90
2022-09-13T05:57:38.837Z,1.25
2022-09-13T06:00:06.723Z,0.85
2022-09-13T06:02:33.582Z,1.00
2022-09-13T06:05:00.337Z,1.05
2022-09-13T06:07:27.712Z,1.10
2022-09-13T06:09:54.517Z,0.90
2022-09-13T06:12:21.229Z,1.00
2022-09-13T06:14:48.416Z,1.42
2022-09-13T06:17:15.979Z,1.02
2022-09-13T06:19:43.575Z,1.00
2022-09-13T06:22:11.072Z,0.93
2022-09-13T06:24:38.361Z,1.15
2022-09-13T06:27:06.209Z,1.00
2022-09-13T06:29:32.936Z,1.20
2022-09-13T06:31:59.862Z,1.10
2022-09-13T06:34:31.115Z,1.55
2022-09-13T06:36:58.841Z,1.02
2022-09-13T06:39:25.758Z,1.08
2022-09-13T06:41:52.526Z,1.42
2022-09-13T06:44:19.236Z,2.90
2022-09-13T06:46:46.655Z,2.40
2022-09-13T06:49:13.483Z,2.45
2022-09-13T06:51:40.194Z,2.63
2022-09-13T06:54:07.405Z,2.75
2022-09-13T06:56:36.210Z,2.40
2022-09-13T06:59:05.201Z,2.60
2022-09-13T07:01:32.855Z,2.60
2022-09-13T07:04:03.371Z,2.33
2022-09-13T07:06:31.642Z,2.80
2022-09-13T07:08:59.733Z,2.63
2022-09-13T07:11:29.952Z,2.50
2022-09-13T07:13:57.573Z,2.75
2022-09-13T07:16:25.727Z,2.58
2022-09-13T07:18:59.829Z,2.55
2022-09-13T07:21:27.070Z,2.28
2022-09-13T07:23:54.536Z,2.55
2022-09-13T07:26:21.385Z,2.38
2022-09-13T07:28:50.240Z,2.50
2022-09-13T07:31:20.761Z,2.55
2022-09-13T07:33:47.764Z,2.22
2022-09-13T07:36:14.755Z,2.20
2022-09-13T07:38:47.475Z,2.40
2022-09-13T07:41:16.357Z,2.45
2022-09-13T07:43:43.123Z,2.67
2022-09-13T07:46:11.447Z,2.38
2022-09-13T07:48:40.300Z,2.42
2022-09-13T07:51:08.864Z,2.50
2022-09-13T07:53:36.630Z,2.50
2022-09-13T07:56:08.010Z,2.75
2022-09-13T07:58:35.304Z,2.20
2022-09-13T08:01:08.669Z,2.10
2022-09-13T08:03:35.801Z,2.30
2022-09-13T08:06:03.115Z,2.47
2022-09-13T08:08:30.243Z,2.10
2022-09-13T08:10:57.121Z,2.25
2022-09-13T08:13:24.117Z,2.60
2022-09-13T08:15:51.085Z,2.13
2022-09-13T08:18:18.623Z,2.30
2022-09-13T08:20:45.461Z,2.83
2022-09-13T08:23:12.544Z,2.25
2022-09-13T08:25:39.459Z,2.55
2022-09-13T08:28:10.816Z,2.50
2022-09-13T08:30:38.050Z,2.60
2022-09-13T08:33:05.055Z,2.80
2022-09-13T08:35:31.952Z,2.60
2022-09-13T08:37:58.771Z,2.70
2022-09-13T08:40:28.279Z,3.00
2022-09-13T08:43:14.536Z,2.88
2022-09-13T08:45:41.271Z,2.53
2022-09-13T08:48:15.823Z,2.55
2022-09-13T08:50:44.965Z,2.60
2022-09-13T08:53:29.371Z,2.53
2022-09-13T08:56:22.193Z,2.70
2022-09-13T08:58:55.750Z,2.50
2022-09-13T09:01:31.458Z,2.80
2022-09-13T09:04:04.537Z,2.80
2022-09-13T09:06:31.256Z,2.60
2022-09-13T09:09:10.258Z,2.50
2022-09-13T09:11:58.713Z,2.67
2022-09-13T09:14:31.208Z,3.00
2022-09-13T09:17:12.621Z,2.85
2022-09-13T09:19:41.104Z,3.28
2022-09-13T09:22:19.664Z,2.63
2022-09-13T09:24:48.834Z,2.83
2022-09-13T09:27:17.120Z,3.22
2022-09-13T09:29:47.034Z,3.05
2022-09-13T09:32:17.112Z,3.28
2022-09-13T09:35:20.119Z,3.05
2022-09-13T09:37:57.087Z,3.28
2022-09-13T09:40:25.700Z,3.15
2022-09-13T09:42:54.461Z,3.40
2022-09-13T09:45:36.387Z,3.45
2022-09-13T09:48:07.353Z,3.42
2022-09-13T09:50:36.739Z,3.30
2022-09-13T09:53:30.677Z,3.25
2022-09-13T09:56:06.998Z,3.25
2022-09-13T09:58:45.157Z,3.05
2022-09-13T10:01:34.951Z,3.50
2022-09-13T10:04:11.067Z,3.58
2022-09-13T10:06:38.936Z,3.47
2022-09-13T10:09:07.484Z,3.65
2022-09-13T10:11:54.182Z,4.20
2022-09-13T10:14:35.191Z,3.33
2022-09-13T10:17:22.176Z,3.50
2022-09-13T10:19:56.291Z,3.58
2022-09-13T10:22:23.125Z,3.10
2022-09-13T10:24:50.735Z,3.50
2022-09-13T10:27:35.978Z,4.10
2022-09-13T10:30:03.817Z,3.25
2022-09-13T10:32:30.682Z,3.40
2022-09-13T10:35:09.243Z,3.20
2022-09-13T10:37:36.432Z,3.88
2022-09-13T10:40:13.246Z,3.50
2022-09-13T10:42:40.036Z,3.85
2022-09-13T10:45:08.395Z,4.07
2022-09-13T10:47:39.546Z,4.07
2022-09-13T10:50:33.658Z,3.90
2022-09-13T10:53:00.614Z,3.97
2022-09-13T10:55:30.399Z,4.78
2022-09-13T10:58:03.070Z,4.00
2022-09-13T11:00:39.263Z,3.78
2022-09-13T11:03:21.065Z,4.20
2022-09-13T11:05:55.253Z,4.35
2022-09-13T11:08:43.968Z,4.32
2022-09-13T11:11:18.096Z,4.20
2022-09-13T11:13:54.417Z,4.22
2022-09-13T11:16:27.016Z,4.00
2022-09-13T11:19:22.811Z,4.03
2022-09-13T11:22:10.655Z,4.45
2022-09-13T11:24:49.724Z,4.15
2022-09-13T11:27:32.289Z,4.60
2022-09-13T11:30:11.562Z,4.22
2022-09-13T11:33:11.756Z,4.38
2022-09-13T11:35:53.504Z,4.20
2022-09-13T11:38:37.444Z,4.20
2022-09-13T11:41:10.316Z,4.35
2022-09-13T11:43:55.975Z,4.20
2022-09-13T11:46:46.725Z,4.47
2022-09-13T11:49:27.406Z,4.47
2022-09-13T11:52:16.059Z,4.10
2022-09-13T11:55:08.919Z,4.30
2022-09-13T11:57:44.862Z,4.50
2022-09-13T12:00:41.141Z,4.28
2022-09-13T12:03:11.356Z,4.13
2022-09-13T12:05:45.597Z,4.72
2022-09-13T12:08:21.901Z,5.03
2022-09-13T12:10:58.665Z,4.88
2022-09-13T12:13:27.601Z,4.68
2022-09-13T12:15:57.401Z,4.80
2022-09-13T12:18:33.288Z,4.47
2022-09-13T12:21:15.506Z,4.90
2022-09-13T12:23:51.117Z,4.75
2022-09-13T12:26:21.847Z,5.18
2022-09-13T12:29:20.961Z,4.95
2022-09-13T12:31:47.717Z,4.38
2022-09-13T12:34:22.519Z,5.47
2022-09-13T12:37:17.212Z,5.07
2022-09-13T12:39:50.018Z,5.20
2022-09-13T12:42:26.199Z,4.97
2022-09-13T12:44:54.107Z,5.20
2022-09-13T12:47:59.011Z,5.20
2022-09-13T12:50:43.406Z,5.07
2022-09-13T12:53:25.897Z,5.18
2022-09-13T12:56:41.881Z,4.57
2022-09-13T12:59:12.049Z,5.05
2022-09-13T13:01:40.582Z,5.00
2022-09-13T13:04:13.479Z,4.75
2022-09-13T13:07:01.114Z,4.95
2022-09-13T13:09:43.666Z,4.60
2022-09-13T13:12:36.696Z,4.88
2022-09-13T13:15:15.702Z,5.03
2022-09-13T13:17:44.009Z,4.50
2022-09-13T13:20:41.260Z,5.20
2022-09-13T13:23:29.959Z,4.40
2022-09-13T13:26:01.083Z,4.63
2022-09-13T13:28:46.157Z,4.18
2022-09-13T13:31:25.323Z,4.43
2022-09-13T13:33:58.480Z,4.60
2022-09-13T13:36:26.468Z,4.20
2022-09-13T13:38:53.725Z,3.97
2022-09-13T13:41:38.502Z,4.50
2022-09-13T13:44:32.013Z,4.45
2022-09-13T13:47:07.950Z,3.60
2022-09-13T13:49:35.310Z,4.50
2022-09-13T13:52:19.095Z,4.95
2022-09-13T13:54:45.847Z,3.97
2022-09-13T13:57:32.536Z,3.97
2022-09-13T14:00:22.278Z,3.60
2022-09-13T14:02:54.854Z,4.00
2022-09-13T14:05:39.688Z,3.67
2022-09-13T14:08:30.550Z,3.78
2022-09-13T14:11:19.214Z,4.10
2022-09-13T14:14:13.998Z,3.75
2022-09-13T14:17:09.040Z,3.88
2022-09-13T14:19:56.557Z,3.72
2022-09-13T14:22:23.784Z,3.60
2022-09-13T14:24:52.373Z,3.58
2022-09-13T14:27:23.194Z,3.15
2022-09-13T14:29:57.565Z,3.45
2022-09-13T14:32:33.883Z,3.50
2022-09-13T14:35:06.230Z,3.53
2022-09-13T14:37:35.424Z,3.60
2022-09-13T14:40:11.959Z,3.80
2022-09-13T14:42:43.466Z,3.40
2022-09-13T14:45:22.065Z,4.18
2022-09-13T14:47:56.092Z,3.92
2022-09-13T14:50:25.913Z,3.47
2022-09-13T14:52:55.290Z,4.07
2022-09-13T14:55:26.459Z,3.15
2022-09-13T14:57:58.510Z,3.63
2022-09-13T15:00:25.830Z,3.63
2022-09-13T15:02:58.096Z,3.60
2022-09-13T15:05:27.837Z,3.60
2022-09-13T15:07:54.577Z,3.90
2022-09-13T15:10:29.949Z,3.65
2022-09-13T15:13:05.498Z,3.33
2022-09-13T15:15:36.274Z,4.03
2022-09-13T15:18:16.811Z,3.47
2022-09-13T15:20:50.962Z,2.85
2022-09-13T15:23:23.350Z,2.65
2022-09-13T15:25:54.410Z,2.78
2022-09-13T15:28:23.853Z,3.08
2022-09-13T15:30:51.623Z,2.85
2022-09-13T15:33:31.735Z,3.40
2022-09-13T15:36:27.839Z,2.90
2022-09-13T15:39:01.740Z,3.15
2022-09-13T15:41:31.495Z,2.95
2022-09-13T15:43:59.785Z,2.83
2022-09-13T15:46:26.685Z,3.08
2022-09-13T15:48:58.507Z,3.33
2022-09-13T15:51:25.464Z,3.25
2022-09-13T15:53:52.379Z,3.20
2022-09-13T15:56:25.369Z,2.97
2022-09-13T15:58:52.142Z,3.67
2022-09-13T16:01:18.962Z,3.25
2022-09-13T16:03:46.193Z,2.90
2022-09-13T16:06:13.021Z,2.90
2022-09-13T16:08:40.143Z,3.00
2022-09-13T16:11:07.297Z,3.47
2022-09-13T16:13:34.190Z,3.38
2022-09-13T16:16:01.034Z,2.63
2022-09-13T16:18:27.856Z,3.50
2022-09-13T16:20:54.670Z,3.63
2022-09-13T16:23:21.417Z,3.20
2022-09-13T16:25:49.382Z,3.53
2022-09-13T16:28:19.820Z,3.35
2022-09-13T16:30:47.568Z,3.15
2022-09-13T16:33:14.824Z,3.30
2022-09-13T16:35:41.580Z,3.58
2022-09-13T16:38:10.196Z,3.10
2022-09-13T16:40:40.250Z,3.13
2022-09-13T16:43:07.327Z,3.00
2022-09-13T16:45:34.242Z,3.10
2022-09-13T16:48:00.995Z,3.17
2022-09-13T16:50:29.383Z,3.10
2022-09-13T16:52:58.741Z,3.00
2022-09-13T16:55:27.528Z,3.03
2022-09-13T16:57:54.287Z,2.92
2022-09-13T17:00:21.139Z,2.80
2022-09-13T17:02:47.939Z,2.83
2022-09-13T17:05:15.086Z,3.03
2022-09-13T17:07:42.005Z,3.03
2022-09-13T17:10:09.540Z,2.80
2022-09-13T17:12:36.518Z,2.83
2022-09-13T17:15:03.951Z,3.10
2022-09-13T17:17:36.059Z,3.10
2022-09-13T17:20:10.050Z,3.05
2022-09-13T17:22:37.088Z,3.15
2022-09-13T17:25:04.958Z,2.90
2022-09-13T17:27:31.703Z,3.08
2022-09-13T17:29:58.818Z,2.70
2022-09-13T17:32:25.632Z,2.85
2022-09-13T17:34:52.668Z,3.00
2022-09-13T17:37:19.606Z,2.72
2022-09-13T17:39:47.017Z,2.72
2022-09-13T17:42:13.895Z,2.92
2022-09-13T17:44:40.650Z,3.28
2022-09-13T17:47:07.389Z,2.90
2022-09-13T17:49:34.626Z,3.00
2022-09-13T17:52:02.218Z,2.67
2022-09-13T17:54:28.945Z,2.83
2022-09-13T17:56:55.682Z,2.90
2022-09-13T17:59:22.586Z,3.35
2022-09-13T18:01:51.192Z,2.63
2022-09-13T18:04:19.733Z,3.67
2022-09-13T18:06:47.000Z,2.95
2022-09-13T18:09:14.456Z,3.08
2022-09-13T18:11:41.675Z,2.97
2022-09-13T18:14:14.769Z,3.00
2022-09-13T18:16:42.018Z,3.13
2022-09-13T18:19:09.324Z,3.45
2022-09-13T18:21:36.541Z,3.20
2022-09-13T18:24:03.721Z,3.28
2022-09-13T18:26:32.692Z,2.90
2022-09-13T18:29:02.746Z,3.17
2022-09-13T18:31:30.454Z,3.25
2022-09-13T18:33:59.171Z,3.90
2022-09-13T18:36:26.646Z,3.22
2022-09-13T18:38:53.771Z,3.10
2022-09-13T18:41:22.082Z,3.47
2022-09-13T18:43:55.448Z,3.15
2022-09-13T18:46:30.951Z,3.40
2022-09-13T18:48:57.934Z,2.90
2022-09-13T18:51:46.438Z,3.25
2022-09-13T18:54:15.542Z,3.30
2022-09-13T18:56:42.293Z,3.00
2022-09-13T18:59:09.563Z,2.75
2022-09-13T19:01:38.197Z,2.72
2022-09-13T19:04:07.574Z,2.67
2022-09-13T19:06:36.081Z,3.20
2022-09-13T19:09:03.253Z,2.90
2022-09-13T19:11:48.107Z,2.90
2022-09-13T19:14:23.260Z,2.97
2022-09-13T19:16:50.759Z,2.50
2022-09-13T19:19:17.552Z,3.15
2022-09-13T19:21:44.311Z,2.60
2022-09-13T19:24:17.730Z,2.85
2022-09-13T19:26:46.172Z,2.80
2022-09-13T19:29:17.622Z,2.83
2022-09-13T19:31:48.048Z,2.50
2022-09-13T19:34:15.465Z,2.70
2022-09-13T19:36:43.219Z,2.70
2022-09-13T19:39:10.115Z,2.92
2022-09-13T19:41:37.262Z,2.70
2022-09-13T19:44:04.367Z,2.80
2022-09-13T19:46:33.353Z,2.60
2022-09-13T19:49:00.832Z,2.13
2022-09-13T19:51:35.727Z,3.10
2022-09-13T19:54:02.607Z,2.67
2022-09-13T19:56:37.358Z,2.53
2022-09-13T19:59:04.333Z,2.30
2022-09-13T20:01:33.464Z,2.17
2022-09-13T20:04:04.614Z,2.42
2022-09-13T20:06:38.046Z,2.47
2022-09-13T20:09:04.906Z,2.72
2022-09-13T20:11:31.856Z,2.47
2022-09-13T20:13:59.484Z,2.45
2022-09-13T20:16:28.734Z,2.42
2022-09-13T20:18:57.209Z,2.55
2022-09-13T20:21:24.550Z,2.70
2022-09-13T20:23:54.172Z,2.55
2022-09-13T20:26:24.006Z,2.13
2022-09-13T20:28:55.544Z,2.50
2022-09-13T20:31:23.510Z,2.15
2022-09-13T20:33:57.396Z,2.10
2022-09-13T20:36:24.782Z,2.30
2022-09-13T20:38:53.417Z,2.10
2022-09-13T20:41:20.947Z,2.40
2022-09-13T20:43:48.873Z,2.42
2022-09-13T20:46:16.092Z,2.40
2022-09-13T20:48:44.458Z,2.25
2022-09-13T20:51:14.516Z,2.58
2022-09-13T20:53:41.258Z,2.00
2022-09-13T20:56:10.039Z,2.20
2022-09-13T20:58:37.158Z,2.03
2022-09-13T21:01:08.931Z,2.60
2022-09-13T21:03:36.805Z,2.40
2022-09-13T21:06:04.217Z,2.20
2022-09-13T21:08:42.896Z,2.10
2022-09-13T21:11:13.858Z,2.35
2022-09-13T21:13:54.489Z,2.22
2022-09-13T21:16:23.125Z,2.20
2022-09-13T21:18:50.189Z,2.30
2022-09-13T21:21:21.898Z,2.30
2022-09-13T21:23:48.715Z,2.40
2022-09-13T21:26:17.485Z,2.00
2022-09-13T21:28:44.338Z,2.20
2022-09-13T21:31:19.497Z,2.10
2022-09-13T21:33:48.215Z,2.03
2022-09-13T21:36:15.059Z,2.30
2022-09-13T21:38:41.779Z,1.90
2022-09-13T21:41:15.639Z,2.20
2022-09-13T21:43:42.541Z,1.92
2022-09-13T21:46:17.084Z,2.15
2022-09-13T21:49:05.006Z,2.28
2022-09-13T21:51:35.376Z,1.98
2022-09-13T21:54:05.552Z,1.98
2022-09-13T21:56:34.795Z,2.10
2022-09-13T21:59:02.461Z,1.95
2022-09-13T22:01:31.109Z,1.80
2022-09-13T22:03:58.055Z,2.05
2022-09-13T22:06:25.047Z,2.05
2022-09-13T22:08:53.734Z,1.90
2022-09-13T22:11:22.128Z,2.05
2022-09-13T22:13:48.952Z,1.92
2022-09-13T22:16:22.508Z,1.92
2022-09-13T22:18:51.087Z,1.98
2022-09-13T22:21:19.872Z,2.30
2022-09-13T22:23:46.714Z,1.85
2022-09-13T22:26:15.389Z,1.73
2022-09-13T22:28:42.376Z,1.98
2022-09-13T22:31:16.411Z,1.63
2022-09-13T22:33:43.207Z,1.88
2022-09-13T22:36:12.328Z,1.70
2022-09-13T22:38:39.839Z,1.90
2022-09-13T22:41:09.901Z,1.98
2022-09-13T22:43:36.664Z,1.70
2022-09-13T22:46:08.344Z,2.03
2022-09-13T22:48:35.417Z,1.90
2022-09-13T22:51:06.293Z,1.80
2022-09-13T22:53:34.531Z,2.05
2022-09-13T22:56:05.452Z,1.73
2022-09-13T22:58:32.202Z,1.80
2022-09-13T23:01:25.590Z,1.85
2022-09-13T23:03:52.903Z,1.85
2022-09-13T23:06:20.723Z,1.88
2022-09-13T23:08:54.728Z,1.80
2022-09-13T23:11:32.132Z,2.00
2022-09-13T23:14:00.903Z,1.70
2022-09-13T23:16:29.796Z,1.70
2022-09-13T23:18:56.593Z,2.05
2022-09-13T23:21:28.276Z,1.83
2022-09-13T23:23:55.271Z,1.75
2022-09-13T23:26:22.864Z,1.88
2022-09-13T23:28:54.784Z,1.63
2022-09-13T23:31:23.221Z,1.77
2022-09-13T23:33:52.219Z,1.70
2022-09-13T23:36:23.439Z,1.83
2022-09-13T23:38:51.695Z,1.52
2022-09-13T23:41:18.810Z,1.92
2022-09-13T23:43:45.661Z,1.58
2022-09-13T23:46:12.681Z,1.58
2022-09-13T23:48:40.465Z,1.60
2022-09-13T23:51:08.547Z,1.60
2022-09-13T23:53:36.009Z,1.52
2022-09-13T23:56:03.789Z,1.80
2022-09-13T23:58:30.893Z,1.80
